createdAt,value
2023-03-30T00:00:47.115Z,0.00
2023-03-30T00:01:47.193Z,0.00
2023-03-30T00:02:47.381Z,0.00
2023-03-30T00:03:47.576Z,0.00
2023-03-30T00:04:47.503Z,0.00
2023-03-30T00:05:47.417Z,0.00
2023-03-30T00:06:47.497Z,0.00
2023-03-30T00:07:47.601Z,0.00
2023-03-30T00:08:47.625Z,0.00
2023-03-30T00:09:47.762Z,0.00
2023-03-30T00:10:47.754Z,0.00
2023-03-30T00:14:40.780Z,0.00
2023-03-30T00:15:41.855Z,0.00
2023-03-30T00:16:41.958Z,0.00
2023-03-30T00:17:41.995Z,0.00
2023-03-30T00:18:42.059Z,0.00
2023-03-30T00:19:42.150Z,0.00
2023-03-30T00:20:42.208Z,0.00
2023-03-30T00:21:42.274Z,0.00
2023-03-30T00:22:42.360Z,0.00
2023-03-30T00:23:42.409Z,0.00
2023-03-30T00:24:42.466Z,0.00
2023-03-30T00:25:42.552Z,0.00
2023-03-30T00:26:42.610Z,0.00
2023-03-30T00:27:42.679Z,0.00
2023-03-30T00:28:42.762Z,0.00
2023-03-30T00:29:42.830Z,0.00
2023-03-30T00:30:42.889Z,0.00
2023-03-30T00:31:42.985Z,0.00
2023-03-30T00:32:43.048Z,0.00
2023-03-30T00:33:47.157Z,0.00
2023-03-30T00:34:43.174Z,0.00
2023-03-30T00:35:43.206Z,0.00
2023-03-30T00:36:43.245Z,0.00
2023-03-30T00:37:43.300Z,0.00
2023-03-30T00:38:43.346Z,0.00
2023-03-30T00:39:43.472Z,0.00
2023-03-30T00:40:43.473Z,0.00
2023-03-30T00:41:43.830Z,0.00
2023-03-30T00:42:43.595Z,0.00
2023-03-30T00:43:43.669Z,0.00
2023-03-30T00:44:43.764Z,0.00
2023-03-30T00:45:44.341Z,0.00
2023-03-30T00:46:43.853Z,0.00
2023-03-30T00:47:43.954Z,0.00
2023-03-30T00:48:43.998Z,0.00
2023-03-30T00:49:44.048Z,0.00
2023-03-30T00:50:44.070Z,0.00
2023-03-30T00:51:44.178Z,0.00
2023-03-30T00:52:44.139Z,0.00
2023-03-30T00:53:44.224Z,0.00
2023-03-30T00:54:44.264Z,0.00
2023-03-30T00:55:44.314Z,0.00
2023-03-30T00:56:44.391Z,0.00
2023-03-30T00:57:44.457Z,0.00
2023-03-30T00:58:44.543Z,0.00
2023-03-30T00:59:44.569Z,0.00
2023-03-30T01:00:44.646Z,0.00
2023-03-30T01:01:44.759Z,0.00
2023-03-30T01:02:44.829Z,0.00
2023-03-30T01:03:44.922Z,0.00
2023-03-30T01:04:44.866Z,0.00
2023-03-30T01:05:44.929Z,0.00
2023-03-30T01:06:44.986Z,0.00
2023-03-30T01:07:51.098Z,0.00
2023-03-30T01:08:45.079Z,0.00
2023-03-30T01:09:45.157Z,0.00
2023-03-30T01:10:45.264Z,0.00
2023-03-30T01:11:45.299Z,0.00
2023-03-30T01:12:45.368Z,0.00
2023-03-30T01:13:45.436Z,0.00
2023-03-30T01:14:45.526Z,0.00
2023-03-30T01:15:45.557Z,0.00
2023-03-30T01:16:47.364Z,0.00
2023-03-30T01:17:45.710Z,0.00
2023-03-30T01:18:45.717Z,0.00
2023-03-30T01:19:46.642Z,0.00
2023-03-30T01:20:45.869Z,0.00
2023-03-30T01:21:45.931Z,0.00
2023-03-30T01:22:45.994Z,0.00
2023-03-30T01:23:46.066Z,0.00
2023-03-30T01:24:46.146Z,0.00
2023-03-30T01:25:46.216Z,0.00
2023-03-30T01:26:46.284Z,0.00
2023-03-30T01:27:47.873Z,0.00
2023-03-30T01:33:27.333Z,0.00
2023-03-30T01:34:28.353Z,0.00
2023-03-30T01:35:28.442Z,0.00
2023-03-30T01:36:28.558Z,0.00
2023-03-30T01:37:28.543Z,0.00
2023-03-30T01:38:28.631Z,0.00
2023-03-30T01:39:28.690Z,0.00
2023-03-30T01:40:28.749Z,0.00
2023-03-30T01:41:28.809Z,0.00
2023-03-30T01:42:28.875Z,0.00
2023-03-30T01:43:29.003Z,0.00
2023-03-30T01:44:29.853Z,0.00
2023-03-30T01:45:29.064Z,0.00
2023-03-30T01:46:29.194Z,0.00
2023-03-30T01:47:29.248Z,0.00
2023-03-30T01:48:29.250Z,0.00
2023-03-30T01:49:29.296Z,0.00
2023-03-30T01:50:29.362Z,0.00
2023-03-30T01:51:29.457Z,0.00
2023-03-30T01:52:29.502Z,0.00
2023-03-30T01:53:29.624Z,0.00
2023-03-30T01:54:29.630Z,0.00
2023-03-30T01:55:30.470Z,0.00
2023-03-30T01:56:29.740Z,0.00
2023-03-30T01:57:29.791Z,0.00
2023-03-30T01:58:29.871Z,0.00
2023-03-30T01:59:30.899Z,0.00
2023-03-30T02:00:30.001Z,0.00
2023-03-30T02:01:30.922Z,0.00
2023-03-30T02:02:30.217Z,0.00
2023-03-30T02:03:31.973Z,0.00
2023-03-30T02:04:30.187Z,0.00
2023-03-30T02:05:30.248Z,0.00
2023-03-30T02:06:32.092Z,0.00
2023-03-30T02:07:30.376Z,0.00
2023-03-30T02:08:30.455Z,0.00
2023-03-30T02:09:30.547Z,0.00
2023-03-30T02:10:30.585Z,0.00
2023-03-30T02:11:30.646Z,0.00
2023-03-30T02:12:31.541Z,0.00
2023-03-30T02:13:30.771Z,0.00
2023-03-30T02:14:30.858Z,0.00
2023-03-30T02:15:30.863Z,0.00
2023-03-30T02:16:30.972Z,0.00
2023-03-30T02:17:31.799Z,0.00
2023-03-30T02:18:31.090Z,0.00
2023-03-30T02:19:31.157Z,0.00
2023-03-30T02:20:31.196Z,0.00
2023-03-30T02:21:31.251Z,0.00
2023-03-30T02:22:31.335Z,0.00
2023-03-30T02:23:31.378Z,0.00
2023-03-30T02:24:31.462Z,0.00
2023-03-30T02:25:31.479Z,0.00
2023-03-30T02:26:32.342Z,0.00
2023-03-30T02:27:31.594Z,0.00
2023-03-30T02:28:31.670Z,0.00
2023-03-30T02:29:31.741Z,0.00
2023-03-30T02:30:31.838Z,0.00
2023-03-30T02:31:31.860Z,0.00
2023-03-30T02:32:32.027Z,0.00
2023-03-30T02:33:31.949Z,0.00
2023-03-30T02:34:32.029Z,0.00
2023-03-30T02:35:32.143Z,0.00
2023-03-30T02:36:32.173Z,0.00
2023-03-30T02:37:32.263Z,0.00
2023-03-30T02:38:32.384Z,0.00
2023-03-30T02:39:32.507Z,0.00
2023-03-30T02:40:32.474Z,0.00
2023-03-30T02:41:32.528Z,0.00
2023-03-30T02:42:32.594Z,0.00
2023-03-30T02:43:32.646Z,0.00
2023-03-30T02:44:32.776Z,0.00
2023-03-30T02:45:32.788Z,0.00
2023-03-30T02:46:32.843Z,0.00
2023-03-30T02:47:33.066Z,0.00
2023-03-30T02:48:33.001Z,0.00
2023-03-30T02:49:33.087Z,0.00
2023-03-30T02:50:33.121Z,0.00
2023-03-30T02:51:33.187Z,0.00
2023-03-30T02:52:33.241Z,0.00
2023-03-30T02:53:33.291Z,0.00
2023-03-30T02:54:33.400Z,0.00
2023-03-30T02:55:33.415Z,0.00
2023-03-30T02:56:33.480Z,0.00
2023-03-30T02:57:33.565Z,0.00
2023-03-30T02:58:33.629Z,0.00
2023-03-30T02:59:33.730Z,0.00
2023-03-30T03:00:33.841Z,0.00
2023-03-30T03:01:33.835Z,0.00
2023-03-30T03:02:33.952Z,0.00
2023-03-30T03:03:33.965Z,0.00
2023-03-30T03:04:34.043Z,0.00
2023-03-30T03:05:34.880Z,0.00
2023-03-30T03:06:34.137Z,0.00
2023-03-30T03:07:34.225Z,0.00
2023-03-30T03:08:34.270Z,0.00
2023-03-30T03:09:34.349Z,0.00
2023-03-30T03:10:34.403Z,0.00
2023-03-30T03:11:34.488Z,0.00
2023-03-30T03:12:34.550Z,0.00
2023-03-30T03:13:34.602Z,0.00
2023-03-30T03:14:34.707Z,0.00
2023-03-30T03:15:34.728Z,0.00
2023-03-30T03:16:34.830Z,0.00
2023-03-30T03:17:35.056Z,0.00
2023-03-30T03:18:34.941Z,0.00
2023-03-30T03:19:35.030Z,0.00
2023-03-30T03:20:35.062Z,0.00
2023-03-30T03:21:35.133Z,0.00
2023-03-30T03:22:35.214Z,0.00
2023-03-30T03:23:35.288Z,0.00
2023-03-30T03:24:35.347Z,0.00
2023-03-30T03:27:23.341Z,0.00
2023-03-30T03:32:00.392Z,0.00
2023-03-30T03:33:01.521Z,0.00
2023-03-30T03:34:01.517Z,0.00
2023-03-30T03:35:01.571Z,0.00
2023-03-30T03:36:01.679Z,0.00
2023-03-30T03:37:01.717Z,0.00
2023-03-30T03:38:01.768Z,0.00
2023-03-30T03:39:01.849Z,0.00
2023-03-30T03:40:01.947Z,0.00
2023-03-30T03:41:02.288Z,0.00
2023-03-30T03:42:02.099Z,0.00
2023-03-30T03:43:02.101Z,0.00
2023-03-30T03:44:02.183Z,0.00
2023-03-30T03:45:02.278Z,0.00
2023-03-30T03:46:02.351Z,0.00
2023-03-30T03:47:02.367Z,0.00
2023-03-30T03:48:02.400Z,0.00
2023-03-30T03:49:02.458Z,0.00
2023-03-30T03:50:02.520Z,0.00
2023-03-30T03:51:02.950Z,0.00
2023-03-30T03:52:02.684Z,0.00
2023-03-30T03:53:02.704Z,0.00
2023-03-30T03:54:02.765Z,0.00
2023-03-30T03:55:02.815Z,0.00
2023-03-30T03:56:02.866Z,0.00
2023-03-30T03:57:03.037Z,0.00
2023-03-30T03:58:02.980Z,0.00
2023-03-30T03:59:03.050Z,0.00
2023-03-30T04:00:03.114Z,0.00
2023-03-30T04:01:03.812Z,0.00
2023-03-30T04:02:03.287Z,0.00
2023-03-30T04:03:03.344Z,0.00
2023-03-30T04:05:51.345Z,0.00
2023-03-30T04:06:52.422Z,0.00
2023-03-30T04:07:52.541Z,0.00
2023-03-30T04:08:52.571Z,0.00
2023-03-30T04:09:52.629Z,0.00
2023-03-30T04:10:52.704Z,0.00
2023-03-30T04:11:52.760Z,0.00
2023-03-30T04:12:52.811Z,0.00
2023-03-30T04:13:52.881Z,0.00
2023-03-30T04:14:52.955Z,0.00
2023-03-30T04:15:53.106Z,0.00
2023-03-30T04:16:53.104Z,0.00
2023-03-30T04:17:53.340Z,0.00
2023-03-30T04:18:53.213Z,0.00
2023-03-30T04:19:53.294Z,0.00
2023-03-30T04:20:53.365Z,0.00
2023-03-30T04:21:53.400Z,0.00
2023-03-30T04:26:29.425Z,0.00
2023-03-30T04:27:30.508Z,0.00
2023-03-30T04:28:30.581Z,0.00
2023-03-30T04:29:30.592Z,0.00
2023-03-30T04:30:30.740Z,0.00
2023-03-30T04:31:30.740Z,0.00
2023-03-30T04:32:30.850Z,0.00
2023-03-30T04:33:30.982Z,0.00
2023-03-30T04:34:31.226Z,0.00
2023-03-30T04:35:31.079Z,0.00
2023-03-30T04:36:31.112Z,0.00
2023-03-30T04:37:31.162Z,0.00
2023-03-30T04:38:31.248Z,0.00
2023-03-30T04:39:31.281Z,0.00
2023-03-30T04:40:31.336Z,0.00
2023-03-30T04:41:31.429Z,0.00
2023-03-30T04:42:31.492Z,0.00
2023-03-30T04:43:31.578Z,0.00
2023-03-30T04:44:31.606Z,0.00
2023-03-30T04:45:31.733Z,0.00
2023-03-30T04:46:31.753Z,0.00
2023-03-30T04:47:31.793Z,0.00
2023-03-30T04:48:31.873Z,0.00
2023-03-30T04:49:31.878Z,0.00
2023-03-30T04:50:31.930Z,4.00
2023-03-30T04:51:31.996Z,4.00
2023-03-30T04:52:32.049Z,4.00
2023-03-30T04:53:32.130Z,0.00
2023-03-30T04:54:33.338Z,0.00
2023-03-30T04:55:32.243Z,4.00
2023-03-30T04:56:32.309Z,4.00
2023-03-30T04:57:32.358Z,4.00
2023-03-30T04:58:32.452Z,4.00
2023-03-30T04:59:32.462Z,8.00
2023-03-30T05:00:32.528Z,24.00
2023-03-30T05:01:32.628Z,24.00
2023-03-30T05:02:32.776Z,24.00
2023-03-30T05:03:32.842Z,24.00
2023-03-30T05:04:32.827Z,24.00
2023-03-30T05:05:32.886Z,24.00
2023-03-30T05:06:32.965Z,28.00
2023-03-30T05:07:33.101Z,24.00
2023-03-30T05:08:33.144Z,24.00
2023-03-30T05:09:33.333Z,24.00
2023-03-30T05:10:33.218Z,28.00
2023-03-30T05:11:33.286Z,24.00
2023-03-30T05:12:33.539Z,24.00
2023-03-30T05:13:33.397Z,24.00
2023-03-30T05:14:33.483Z,28.00
2023-03-30T05:15:33.553Z,28.00
2023-03-30T05:16:33.643Z,36.00
2023-03-30T05:17:33.846Z,36.00
2023-03-30T05:18:33.776Z,40.00
2023-03-30T05:19:33.797Z,48.00
2023-03-30T05:20:33.864Z,56.00
2023-03-30T05:21:33.940Z,56.00
2023-03-30T05:22:33.991Z,48.00
2023-03-30T05:23:34.080Z,48.00
2023-03-30T05:24:34.099Z,48.00
2023-03-30T05:27:22.266Z,48.00
2023-03-30T05:28:23.197Z,56.00
2023-03-30T05:29:23.360Z,60.00
2023-03-30T05:30:23.320Z,64.00
2023-03-30T05:31:23.410Z,64.00
2023-03-30T05:32:23.483Z,64.00
2023-03-30T05:33:23.618Z,68.00
2023-03-30T05:34:23.625Z,80.00
2023-03-30T05:35:23.644Z,88.00
2023-03-30T05:36:23.715Z,104.00
2023-03-30T05:37:23.939Z,128.00
2023-03-30T05:38:23.814Z,140.00
2023-03-30T05:39:23.891Z,152.00
2023-03-30T05:40:23.920Z,188.00
2023-03-30T05:41:24.063Z,196.00
2023-03-30T05:42:24.052Z,204.00
2023-03-30T05:43:24.146Z,200.00
2023-03-30T05:44:24.210Z,168.00
2023-03-30T05:45:24.294Z,144.00
2023-03-30T05:46:24.336Z,116.00
2023-03-30T05:47:24.367Z,108.00
2023-03-30T05:48:24.670Z,120.00
2023-03-30T05:49:24.553Z,120.00
2023-03-30T05:50:24.589Z,120.00
2023-03-30T05:51:24.646Z,120.00
2023-03-30T05:52:24.724Z,116.00
2023-03-30T05:53:24.792Z,116.00
2023-03-30T05:54:24.947Z,120.00
2023-03-30T05:55:24.920Z,120.00
2023-03-30T05:56:25.011Z,100.00
2023-03-30T05:57:25.114Z,100.00
2023-03-30T05:58:25.133Z,104.00
2023-03-30T05:59:25.163Z,120.00
2023-03-30T06:00:25.341Z,136.00
2023-03-30T06:01:25.304Z,136.00
2023-03-30T06:02:25.542Z,144.00
2023-03-30T06:03:25.478Z,140.00
2023-03-30T06:04:25.547Z,156.00
2023-03-30T06:05:25.588Z,160.00
2023-03-30T06:06:25.638Z,172.00
2023-03-30T06:07:25.662Z,168.00
2023-03-30T06:08:25.770Z,188.00
2023-03-30T06:09:25.816Z,188.00
2023-03-30T06:10:25.843Z,200.00
2023-03-30T06:11:25.982Z,180.00
2023-03-30T06:12:25.966Z,160.00
2023-03-30T06:13:26.024Z,148.00
2023-03-30T06:14:29.245Z,148.00
2023-03-30T06:15:26.160Z,136.00
2023-03-30T06:16:26.253Z,104.00
2023-03-30T06:17:26.644Z,96.00
2023-03-30T06:18:26.361Z,112.00
2023-03-30T06:19:26.887Z,100.00
2023-03-30T06:20:26.485Z,128.00
2023-03-30T06:21:26.558Z,132.00
2023-03-30T06:22:26.640Z,136.00
2023-03-30T06:23:26.691Z,168.00
2023-03-30T06:24:26.807Z,152.00
2023-03-30T06:25:26.781Z,128.00
2023-03-30T06:26:27.032Z,112.00
2023-03-30T06:27:27.085Z,120.00
2023-03-30T06:28:26.949Z,152.00
2023-03-30T06:29:27.024Z,204.00
2023-03-30T06:30:27.189Z,256.00
2023-03-30T06:31:27.145Z,224.00
2023-03-30T06:32:27.214Z,204.00
2023-03-30T06:33:27.283Z,188.00
2023-03-30T06:34:27.382Z,168.00
2023-03-30T06:35:27.402Z,148.00
2023-03-30T06:36:44.327Z,140.00
2023-03-30T06:37:27.602Z,128.00
2023-03-30T06:38:27.599Z,124.00
2023-03-30T06:39:27.649Z,136.00
2023-03-30T06:40:27.669Z,148.00
2023-03-30T06:41:27.777Z,144.00
2023-03-30T06:42:27.856Z,140.00
2023-03-30T06:43:27.865Z,148.00
2023-03-30T06:44:27.994Z,160.00
2023-03-30T06:45:28.032Z,192.00
2023-03-30T06:46:28.111Z,260.00
2023-03-30T06:47:28.183Z,308.00
2023-03-30T06:48:28.313Z,288.00
2023-03-30T06:49:28.299Z,272.00
2023-03-30T06:50:28.342Z,272.00
2023-03-30T06:51:28.616Z,252.00
2023-03-30T06:52:28.447Z,220.00
2023-03-30T06:53:28.514Z,220.00
2023-03-30T06:54:28.590Z,220.00
2023-03-30T06:55:28.739Z,228.00
2023-03-30T06:56:28.761Z,248.00
2023-03-30T06:57:28.843Z,288.00
2023-03-30T06:58:28.885Z,272.00
2023-03-30T06:59:28.980Z,192.00
2023-03-30T07:00:29.126Z,160.00
2023-03-30T07:01:29.143Z,160.00
2023-03-30T07:02:29.171Z,188.00
2023-03-30T07:03:29.246Z,216.00
2023-03-30T07:04:29.413Z,224.00
2023-03-30T07:05:29.330Z,188.00
2023-03-30T07:06:29.421Z,168.00
2023-03-30T07:07:29.510Z,192.00
2023-03-30T07:08:29.536Z,192.00
2023-03-30T07:09:29.619Z,248.00
2023-03-30T07:10:29.690Z,248.00
2023-03-30T07:11:29.852Z,324.00
2023-03-30T07:12:29.843Z,352.00
2023-03-30T07:13:29.923Z,376.00
2023-03-30T07:14:30.115Z,496.00
2023-03-30T07:15:30.039Z,484.00
2023-03-30T07:16:30.139Z,580.00
2023-03-30T07:17:30.300Z,628.00
2023-03-30T07:18:30.203Z,708.00
2023-03-30T07:19:30.282Z,708.00
2023-03-30T07:20:30.343Z,700.00
2023-03-30T07:21:30.471Z,760.00
2023-03-30T07:22:30.461Z,912.00
2023-03-30T07:23:30.530Z,1084.00
2023-03-30T07:24:30.630Z,1072.00
2023-03-30T07:25:31.602Z,1152.00
2023-03-30T07:26:30.682Z,1324.00
2023-03-30T07:27:30.833Z,1224.00
2023-03-30T07:28:30.790Z,1560.00
2023-03-30T07:29:30.923Z,1936.00
2023-03-30T07:30:30.952Z,1964.00
2023-03-30T07:31:31.063Z,1780.00
2023-03-30T07:32:31.139Z,1252.00
2023-03-30T07:33:31.172Z,1328.00
2023-03-30T07:34:31.278Z,876.00
2023-03-30T07:35:31.331Z,736.00
2023-03-30T07:36:31.318Z,732.00
2023-03-30T07:37:31.327Z,1080.00
2023-03-30T07:38:31.428Z,988.00
2023-03-30T07:39:33.464Z,632.00
2023-03-30T07:40:31.583Z,436.00
2023-03-30T07:41:31.583Z,456.00
2023-03-30T07:42:31.592Z,460.00
2023-03-30T07:43:31.667Z,488.00
2023-03-30T07:44:31.760Z,436.00
2023-03-30T07:45:31.813Z,400.00
2023-03-30T07:46:31.942Z,376.00
2023-03-30T07:47:31.920Z,324.00
2023-03-30T07:48:31.957Z,228.00
2023-03-30T07:49:32.054Z,188.00
2023-03-30T07:50:32.195Z,160.00
2023-03-30T07:51:32.120Z,152.00
2023-03-30T07:52:32.259Z,148.00
2023-03-30T07:53:32.333Z,160.00
2023-03-30T07:54:32.360Z,256.00
2023-03-30T07:55:32.410Z,180.00
2023-03-30T07:56:32.452Z,176.00
2023-03-30T07:57:32.581Z,212.00
2023-03-30T07:58:32.921Z,208.00
2023-03-30T07:59:32.802Z,212.00
2023-03-30T08:00:32.732Z,232.00
2023-03-30T08:01:32.829Z,228.00
2023-03-30T08:02:32.897Z,232.00
2023-03-30T08:03:33.039Z,304.00
2023-03-30T08:04:33.030Z,376.00
2023-03-30T08:05:33.032Z,416.00
2023-03-30T08:06:33.113Z,372.00
2023-03-30T08:07:33.166Z,320.00
2023-03-30T08:10:21.251Z,308.00
2023-03-30T08:11:22.333Z,516.00
2023-03-30T08:12:22.567Z,440.00
2023-03-30T08:13:22.554Z,588.00
2023-03-30T08:14:22.506Z,580.00
2023-03-30T08:15:22.638Z,776.00
2023-03-30T08:16:22.649Z,712.00
2023-03-30T08:17:22.666Z,888.00
2023-03-30T08:18:22.685Z,892.00
2023-03-30T08:19:22.767Z,968.00
2023-03-30T08:20:22.846Z,1068.00
2023-03-30T08:21:22.837Z,940.00
2023-03-30T08:22:22.897Z,788.00
2023-03-30T08:23:22.950Z,756.00
2023-03-30T08:24:23.038Z,892.00
2023-03-30T08:25:23.090Z,1148.00
2023-03-30T08:26:23.107Z,1424.00
2023-03-30T08:27:23.202Z,1488.00
2023-03-30T08:28:23.374Z,1564.00
2023-03-30T08:29:23.453Z,1216.00
2023-03-30T08:30:23.468Z,1080.00
2023-03-30T08:31:23.526Z,892.00
2023-03-30T08:32:23.572Z,752.00
2023-03-30T08:33:23.686Z,516.00
2023-03-30T08:34:23.702Z,428.00
2023-03-30T08:35:23.881Z,416.00
2023-03-30T08:36:23.842Z,380.00
2023-03-30T08:37:24.048Z,452.00
2023-03-30T08:38:23.920Z,568.00
2023-03-30T08:39:23.973Z,584.00
2023-03-30T08:40:24.052Z,532.00
2023-03-30T08:41:24.097Z,540.00
2023-03-30T08:42:24.157Z,516.00
2023-03-30T08:43:24.277Z,560.00
2023-03-30T08:44:24.354Z,716.00
2023-03-30T08:45:24.401Z,832.00
2023-03-30T08:46:24.475Z,940.00
2023-03-30T08:47:24.580Z,1056.00
2023-03-30T08:48:24.595Z,1212.00
2023-03-30T08:49:25.442Z,1232.00
2023-03-30T08:50:24.736Z,968.00
2023-03-30T08:51:24.801Z,512.00
2023-03-30T08:52:24.790Z,596.00
2023-03-30T08:53:24.851Z,596.00
2023-03-30T08:54:24.915Z,764.00
2023-03-30T08:55:25.062Z,720.00
2023-03-30T08:56:25.063Z,632.00
2023-03-30T08:57:25.141Z,512.00
2023-03-30T08:58:25.174Z,356.00
2023-03-30T08:59:25.258Z,268.00
2023-03-30T09:00:25.345Z,236.00
2023-03-30T09:01:25.612Z,284.00
2023-03-30T09:02:25.450Z,268.00
2023-03-30T09:03:25.507Z,304.00
2023-03-30T09:04:25.543Z,320.00
2023-03-30T09:05:25.747Z,368.00
2023-03-30T09:06:25.714Z,356.00
2023-03-30T09:07:25.930Z,352.00
2023-03-30T09:08:25.819Z,396.00
2023-03-30T09:09:25.884Z,452.00
2023-03-30T09:10:25.970Z,488.00
2023-03-30T09:11:26.095Z,600.00
2023-03-30T09:12:26.251Z,848.00
2023-03-30T09:13:26.112Z,948.00
2023-03-30T09:14:26.186Z,828.00
2023-03-30T09:15:26.290Z,884.00
2023-03-30T09:16:26.356Z,888.00
2023-03-30T09:17:26.376Z,844.00
2023-03-30T09:18:26.404Z,880.00
2023-03-30T09:19:26.493Z,908.00
2023-03-30T09:20:26.543Z,920.00
2023-03-30T09:21:26.818Z,772.00
2023-03-30T09:22:26.637Z,820.00
2023-03-30T09:23:26.693Z,796.00
2023-03-30T09:24:26.924Z,804.00
2023-03-30T09:25:26.957Z,756.00
2023-03-30T09:26:26.931Z,780.00
2023-03-30T09:27:26.978Z,880.00
2023-03-30T09:28:27.062Z,840.00
2023-03-30T09:29:27.060Z,768.00
2023-03-30T09:30:27.186Z,728.00
2023-03-30T09:31:27.203Z,628.00
2023-03-30T09:32:27.296Z,600.00
2023-03-30T09:33:27.327Z,612.00
2023-03-30T09:34:27.390Z,636.00
2023-03-30T09:35:27.537Z,660.00
2023-03-30T09:36:27.585Z,708.00
2023-03-30T09:37:27.590Z,636.00
2023-03-30T09:38:27.655Z,548.00
2023-03-30T09:39:27.813Z,432.00
2023-03-30T09:40:27.832Z,360.00
2023-03-30T09:41:27.886Z,316.00
2023-03-30T09:42:27.908Z,300.00
2023-03-30T09:43:28.674Z,272.00
2023-03-30T09:44:28.082Z,264.00
2023-03-30T09:45:28.214Z,248.00
2023-03-30T09:46:28.272Z,240.00
2023-03-30T09:47:28.276Z,216.00
2023-03-30T09:48:28.316Z,216.00
2023-03-30T09:49:28.378Z,228.00
2023-03-30T09:50:28.465Z,256.00
2023-03-30T09:51:30.696Z,284.00
2023-03-30T09:52:28.551Z,320.00
2023-03-30T09:53:28.625Z,360.00
2023-03-30T09:54:28.666Z,416.00
2023-03-30T09:55:28.761Z,456.00
2023-03-30T09:56:28.764Z,424.00
2023-03-30T09:57:28.868Z,396.00
2023-03-30T09:58:28.849Z,456.00
2023-03-30T09:59:28.936Z,660.00
2023-03-30T10:00:28.972Z,940.00
2023-03-30T10:01:29.009Z,1028.00
2023-03-30T10:02:29.287Z,984.00
2023-03-30T10:03:29.249Z,860.00
2023-03-30T10:04:29.295Z,736.00
2023-03-30T10:05:29.305Z,644.00
2023-03-30T10:06:29.329Z,600.00
2023-03-30T10:07:29.401Z,604.00
2023-03-30T10:08:29.473Z,680.00
2023-03-30T10:09:29.538Z,704.00
2023-03-30T10:10:29.632Z,724.00
2023-03-30T10:11:29.691Z,600.00
2023-03-30T10:12:29.753Z,416.00
2023-03-30T10:13:29.829Z,336.00
2023-03-30T10:14:29.909Z,348.00
2023-03-30T10:18:22.948Z,460.00
2023-03-30T10:19:23.967Z,528.00
2023-03-30T10:20:24.032Z,588.00
2023-03-30T10:21:24.076Z,596.00
2023-03-30T10:22:24.137Z,588.00
2023-03-30T10:23:24.228Z,632.00
2023-03-30T10:24:24.253Z,772.00
2023-03-30T10:25:24.322Z,1016.00
2023-03-30T10:26:24.434Z,1652.00
2023-03-30T10:27:24.481Z,1944.00
2023-03-30T10:28:24.564Z,1660.00
2023-03-30T10:29:24.629Z,4396.00
2023-03-30T10:30:24.743Z,2004.00
2023-03-30T10:31:27.268Z,1320.00
2023-03-30T10:32:24.833Z,1632.00
2023-03-30T10:33:24.930Z,1392.00
2023-03-30T10:34:24.933Z,1224.00
2023-03-30T10:35:25.170Z,1088.00
2023-03-30T10:36:25.038Z,980.00
2023-03-30T10:40:18.090Z,1380.00
2023-03-30T10:41:19.112Z,1388.00
2023-03-30T10:42:19.181Z,964.00
2023-03-30T10:43:19.233Z,864.00
2023-03-30T10:44:19.383Z,812.00
2023-03-30T10:45:19.512Z,756.00
2023-03-30T10:46:20.692Z,728.00
2023-03-30T10:47:19.550Z,704.00
2023-03-30T10:48:19.729Z,656.00
2023-03-30T10:49:19.603Z,628.00
2023-03-30T10:50:19.839Z,636.00
2023-03-30T10:51:19.760Z,824.00
2023-03-30T10:52:19.888Z,1568.00
2023-03-30T10:53:19.972Z,1964.00
2023-03-30T10:54:20.051Z,1608.00
2023-03-30T10:55:20.038Z,1192.00
2023-03-30T10:56:20.071Z,1112.00
2023-03-30T10:57:20.270Z,1068.00
2023-03-30T10:58:20.513Z,1116.00
2023-03-30T10:59:20.828Z,1064.00
2023-03-30T11:00:20.429Z,996.00
2023-03-30T11:01:20.771Z,1164.00
2023-03-30T11:02:20.584Z,756.00
2023-03-30T11:03:20.574Z,664.00
2023-03-30T11:04:24.264Z,704.00
2023-03-30T11:05:20.687Z,644.00
2023-03-30T11:06:20.748Z,792.00
2023-03-30T11:07:20.990Z,844.00
2023-03-30T11:08:20.812Z,812.00
2023-03-30T11:09:20.955Z,636.00
2023-03-30T11:10:22.291Z,828.00
2023-03-30T11:11:21.222Z,848.00
2023-03-30T11:12:21.261Z,1000.00
2023-03-30T11:13:21.200Z,1192.00
2023-03-30T11:14:21.225Z,1136.00
2023-03-30T11:15:21.317Z,1300.00
2023-03-30T11:16:21.397Z,1380.00
2023-03-30T11:17:21.744Z,960.00
2023-03-30T11:18:21.492Z,668.00
2023-03-30T11:19:21.603Z,472.00
2023-03-30T11:20:21.643Z,432.00
2023-03-30T11:21:21.713Z,412.00
2023-03-30T11:22:21.695Z,488.00
2023-03-30T11:23:21.820Z,632.00
2023-03-30T11:24:21.899Z,636.00
2023-03-30T11:25:22.174Z,604.00
2023-03-30T11:26:21.920Z,640.00
2023-03-30T11:27:22.006Z,520.00
2023-03-30T11:28:22.096Z,432.00
2023-03-30T11:29:22.426Z,400.00
2023-03-30T11:30:22.211Z,412.00
2023-03-30T11:31:22.471Z,356.00
2023-03-30T11:32:22.258Z,336.00
2023-03-30T11:33:22.467Z,292.00
2023-03-30T11:34:22.369Z,236.00
2023-03-30T11:35:22.541Z,244.00
2023-03-30T11:36:22.542Z,260.00
2023-03-30T11:37:22.541Z,276.00
2023-03-30T11:38:23.195Z,340.00
2023-03-30T11:39:31.771Z,444.00
2023-03-30T11:40:24.248Z,512.00
2023-03-30T11:41:22.815Z,420.00
2023-03-30T11:42:22.875Z,292.00
2023-03-30T11:43:22.942Z,204.00
2023-03-30T11:44:23.003Z,160.00
2023-03-30T11:45:23.098Z,212.00
2023-03-30T11:46:23.149Z,288.00
2023-03-30T11:47:23.309Z,256.00
2023-03-30T11:48:23.241Z,344.00
2023-03-30T11:49:23.331Z,256.00
2023-03-30T11:50:23.357Z,420.00
2023-03-30T11:51:23.524Z,504.00
2023-03-30T11:52:23.504Z,476.00
2023-03-30T11:53:23.620Z,492.00
2023-03-30T11:54:23.736Z,524.00
2023-03-30T11:55:23.768Z,444.00
2023-03-30T11:56:26.054Z,380.00
2023-03-30T11:57:23.924Z,452.00
2023-03-30T11:58:23.899Z,384.00
2023-03-30T11:59:23.981Z,432.00
2023-03-30T12:00:24.102Z,388.00
2023-03-30T12:01:24.113Z,472.00
2023-03-30T12:02:24.214Z,580.00
2023-03-30T12:03:24.421Z,648.00
2023-03-30T12:04:24.351Z,712.00
2023-03-30T12:05:24.361Z,724.00
2023-03-30T12:06:24.389Z,508.00
2023-03-30T12:07:24.469Z,624.00
2023-03-30T12:08:24.544Z,748.00
2023-03-30T12:09:24.600Z,560.00
2023-03-30T12:10:24.706Z,628.00
2023-03-30T12:11:24.734Z,532.00
2023-03-30T12:12:25.616Z,628.00
2023-03-30T12:13:24.846Z,360.00
2023-03-30T12:14:24.914Z,232.00
2023-03-30T12:15:25.102Z,252.00
2023-03-30T12:16:27.561Z,740.00
2023-03-30T12:17:25.239Z,656.00
2023-03-30T12:18:25.217Z,400.00
2023-03-30T12:19:25.268Z,252.00
2023-03-30T12:20:25.319Z,296.00
2023-03-30T12:21:25.706Z,388.00
2023-03-30T12:22:25.605Z,520.00
2023-03-30T12:23:25.459Z,672.00
2023-03-30T12:24:25.539Z,512.00
2023-03-30T12:25:25.626Z,344.00
2023-03-30T12:26:29.952Z,472.00
2023-03-30T12:27:26.582Z,568.00
2023-03-30T12:28:32.105Z,512.00
2023-03-30T12:30:25.982Z,432.00
2023-03-30T12:31:26.016Z,684.00
2023-03-30T12:32:28.444Z,524.00
2023-03-30T12:33:26.128Z,420.00
2023-03-30T12:34:26.162Z,412.00
2023-03-30T12:35:26.296Z,544.00
2023-03-30T12:36:26.255Z,292.00
2023-03-30T12:37:26.327Z,260.00
2023-03-30T12:38:26.401Z,248.00
2023-03-30T12:39:26.487Z,268.00
2023-03-30T12:40:26.546Z,472.00
2023-03-30T12:41:26.581Z,696.00
2023-03-30T12:42:26.710Z,640.00
2023-03-30T12:43:26.736Z,696.00
2023-03-30T12:44:26.773Z,816.00
2023-03-30T12:45:26.862Z,912.00
2023-03-30T12:46:26.920Z,1036.00
2023-03-30T12:47:26.926Z,1116.00
2023-03-30T12:48:26.945Z,904.00
2023-03-30T12:49:27.107Z,756.00
2023-03-30T12:50:27.095Z,636.00
2023-03-30T12:51:27.145Z,776.00
2023-03-30T12:52:28.415Z,752.00
2023-03-30T12:53:27.261Z,888.00
2023-03-30T12:54:27.282Z,1020.00
2023-03-30T12:55:27.402Z,1112.00
2023-03-30T12:56:27.488Z,1124.00
2023-03-30T12:57:27.572Z,1232.00
2023-03-30T12:58:27.526Z,1072.00
2023-03-30T12:59:27.591Z,1084.00
2023-03-30T13:00:27.696Z,1164.00
2023-03-30T13:01:27.751Z,1172.00
2023-03-30T13:02:27.869Z,1252.00
2023-03-30T13:03:27.874Z,1212.00
2023-03-30T13:04:27.984Z,1060.00
2023-03-30T13:05:28.098Z,848.00
2023-03-30T13:06:28.142Z,756.00
2023-03-30T13:07:28.982Z,660.00
2023-03-30T13:08:28.185Z,640.00
2023-03-30T13:09:28.447Z,700.00
2023-03-30T13:10:28.373Z,1072.00
2023-03-30T13:11:28.526Z,1344.00
2023-03-30T13:12:28.407Z,1404.00
2023-03-30T13:13:28.457Z,1368.00
2023-03-30T13:14:28.505Z,1328.00
2023-03-30T13:15:28.704Z,1392.00